Time;durP1;ratioP1;P1;durP2;ratioP2;P2;SDS_P1;SDS_P2;PMS_P1;PMS_P2;Temp;Humidity;BMP_temperature;BMP_pressure;BME280_temperature;BME280_humidity;BME280_pressure;Samples;Min_cycle;Max_cycle;Signal;HPM_P1;HPM_P2
2021/12/17 00:00:31;;;;;;;34.03;17.50;;;6.30;99.90;;;;;;2097314;28;20033;-71
2021/12/17 00:02:11;;;;;;;32.75;17.55;;;6.30;99.90;;;;;;2088784;28;20041;-70
2021/12/17 00:04:03;;;;;;;32.13;17.80;;;6.30;99.90;;;;;;2097980;28;20067;-71
2021/12/17 00:05:09;;;;;;;35.03;18.02;;;6.30;99.90;;;;;;2097954;28;20032;-71
2021/12/17 00:07:15;;;;;;;33.38;18.10;;;6.30;99.90;;;;;;2097451;28;20130;-71
2021/12/17 00:08:17;;;;;;;31.58;17.70;;;6.30;99.90;;;;;;2097601;28;20099;-71
2021/12/17 00:09:18;;;;;;;32.25;17.30;;;6.30;99.90;;;;;;2097949;28;20020;-71
2021/12/17 00:10:19;;;;;;;33.40;18.38;;;6.30;99.90;;;;;;2097310;28;20040;-72
2021/12/17 00:11:21;;;;;;;33.75;17.92;;;6.30;99.90;;;;;;2097453;28;20029;-72
2021/12/17 00:12:25;;;;;;;31.73;17.40;;;6.30;99.90;;;;;;2097115;28;20079;-72
2021/12/17 00:13:26;;;;;;;33.42;18.23;;;6.30;99.90;;;;;;2089453;28;20029;-72
2021/12/17 00:14:29;;;;;;;34.17;19.05;;;6.30;99.90;;;;;;2097018;28;20103;-72
2021/12/17 00:15:30;;;;;;;31.88;18.17;;;6.30;99.90;;;;;;2097120;28;20125;-70
2021/12/17 00:16:36;;;;;;;34.42;18.80;;;6.30;99.90;;;;;;2097356;28;20032;-71
2021/12/17 00:17:47;;;;;;;37.08;18.80;;;6.30;99.90;;;;;;2097580;28;20411;-72
2021/12/17 00:20:24;;;;;;;35.15;19.10;;;6.20;99.90;;;;;;2097847;28;20060;-71
2021/12/17 00:48:37;;;;;;;42.50;21.15;;;6.10;99.90;;;;;;2096543;28;20568;-70
2021/12/17 00:49:42;;;;;;;38.15;20.02;;;6.10;99.90;;;;;;2097236;28;20107;-70
2021/12/17 00:52:04;;;;;;;33.85;18.67;;;6.10;99.90;;;;;;2097361;28;20149;-69
2021/12/17 00:53:06;;;;;;;36.28;19.17;;;6.10;99.90;;;;;;2096737;28;20523;-69
2021/12/17 00:54:19;;;;;;;35.47;19.55;;;6.10;99.90;;;;;;2096790;28;20528;-70
2021/12/17 00:55:19;;;;;;;34.50;18.45;;;6.10;99.90;;;;;;2097444;28;20032;-70
2021/12/17 00:56:20;;;;;;;31.60;17.95;;;6.20;99.90;;;;;;2097142;28;20116;-69
2021/12/17 00:57:26;;;;;;;36.50;19.35;;;6.20;99.90;;;;;;2097507;28;20024;-70
2021/12/17 00:58:27;;;;;;;37.15;19.60;;;6.20;99.90;;;;;;2096262;28;20820;-71
2021/12/17 00:59:28;;;;;;;34.83;19.85;;;6.20;99.90;;;;;;2096671;28;20033;-70
2021/12/17 01:00:29;;;;;;;37.20;20.10;;;6.20;99.90;;;;;;2088344;28;20480;-70
2021/12/17 01:01:30;;;;;;;38.17;19.80;;;6.20;99.90;;;;;;2096535;28;20074;-71
2021/12/17 01:02:36;;;;;;;36.30;19.65;;;6.20;99.90;;;;;;2096704;28;20051;-70
2021/12/17 01:03:37;;;;;;;35.72;19.27;;;6.20;99.90;;;;;;2089204;28;20480;-70
2021/12/17 01:04:42;;;;;;;37.10;19.45;;;6.20;99.90;;;;;;2096739;28;20125;-70
2021/12/17 01:05:43;;;;;;;38.40;20.05;;;6.20;99.90;;;;;;2096541;28;20037;-70
2021/12/17 01:06:44;;;;;;;36.60;19.38;;;6.20;99.90;;;;;;2088462;28;20017;-71
2021/12/17 01:07:47;;;;;;;38.83;20.15;;;6.20;99.90;;;;;;2088041;28;20029;-70
2021/12/17 01:08:50;;;;;;;40.03;20.10;;;6.20;99.90;;;;;;2096459;28;20032;-70
2021/12/17 01:09:54;;;;;;;38.20;20.67;;;6.20;99.90;;;;;;2088872;28;20558;-71
2021/12/17 01:10:57;;;;;;;40.60;20.27;;;6.20;99.90;;;;;;2088479;28;20070;-71
2021/12/17 01:12:22;;;;;;;36.40;19.40;;;6.20;99.90;;;;;;2096334;28;20036;-71
2021/12/17 01:13:42;;;;;;;36.78;20.00;;;6.20;99.90;;;;;;2097042;28;20029;-71
2021/12/17 01:14:57;;;;;;;36.50;19.65;;;6.20;99.90;;;;;;2093523;28;20041;-70
2021/12/17 01:16:04;;;;;;;37.85;20.00;;;6.20;99.90;;;;;;2096834;28;20025;-70
2021/12/17 01:17:19;;;;;;;36.13;19.52;;;6.20;99.90;;;;;;2090566;28;20039;-69
2021/12/17 01:19:04;;;;;;;34.22;19.83;;;6.20;99.90;;;;;;2091598;28;20016;-70
2021/12/17 01:20:27;;;;;;;37.88;19.77;;;6.20;99.90;;;;;;2083827;28;20055;-70
2021/12/17 01:23:11;;;;;;;38.45;19.80;;;6.30;99.90;;;;;;2092922;28;20040;-72
2021/12/17 01:24:59;;;;;;;41.35;20.27;;;6.30;99.90;;;;;;2092735;28;20028;-71
2021/12/17 01:35:40;;;;;;;37.00;18.88;;;6.30;99.90;;;;;;2097009;28;20620;-70
2021/12/17 01:37:01;;;;;;;38.63;20.20;;;6.30;99.90;;;;;;2096744;28;20032;-69
2021/12/17 01:42:05;;;;;;;44.70;23.55;;;6.40;99.90;;;;;;2096526;28;20021;-69
2021/12/17 01:43:06;;;;;;;45.92;23.52;;;6.40;99.90;;;;;;2089331;28;20041;-69
2021/12/17 01:44:09;;;;;;;46.88;24.30;;;6.40;99.90;;;;;;2088143;28;20041;-69
2021/12/17 01:45:11;;;;;;;43.03;22.48;;;6.40;99.90;;;;;;2080619;28;20576;-69
2021/12/17 01:46:16;;;;;;;40.53;21.02;;;6.40;99.90;;;;;;2088025;28;20403;-69
2021/12/17 01:47:16;;;;;;;40.30;21.20;;;6.40;99.90;;;;;;2080462;28;20572;-70
2021/12/17 01:48:22;;;;;;;40.83;21.00;;;6.40;99.90;;;;;;2087864;28;20061;-70
2021/12/17 01:56:16;;;;;;;43.42;21.23;;;6.50;99.90;;;;;;2096408;28;20029;-70
2021/12/17 01:59:46;;;;;;;43.60;22.13;;;6.40;99.90;;;;;;2096419;28;20044;-71
2021/12/17 02:00:48;;;;;;;41.08;21.60;;;6.40;99.90;;;;;;2096378;28;20035;-70
2021/12/17 02:01:51;;;;;;;40.95;21.63;;;6.40;99.90;;;;;;2087909;28;20021;-70
2021/12/17 02:02:55;;;;;;;43.17;22.05;;;6.40;99.90;;;;;;2088221;28;20120;-69
2021/12/17 02:04:05;;;;;;;43.33;21.98;;;6.40;99.90;;;;;;2089835;28;20033;-69
2021/12/17 02:05:07;;;;;;;41.35;21.65;;;6.40;99.90;;;;;;2093506;28;20778;-70
2021/12/17 02:06:08;;;;;;;42.92;21.88;;;6.40;99.90;;;;;;2096201;28;20021;-70
2021/12/17 02:07:09;;;;;;;42.70;22.83;;;6.40;99.90;;;;;;2096523;28;20055;-70
2021/12/17 02:08:10;;;;;;;42.25;22.15;;;6.40;99.90;;;;;;2096423;28;20029;-70
2021/12/17 02:09:47;;;;;;;45.83;23.20;;;6.40;99.90;;;;;;2096410;28;20054;-70
2021/12/17 02:19:26;;;;;;;46.03;23.30;;;6.40;99.90;;;;;;2096016;28;20731;-69
2021/12/17 02:20:10;;;;;;;48.28;25.42;;;6.40;99.90;;;;;;2095786;28;20428;-70
2021/12/17 02:21:50;;;;;;;50.00;24.58;;;6.40;99.90;;;;;;2091009;28;20028;-70
2021/12/17 02:23:19;;;;;;;51.95;24.48;;;6.40;99.90;;;;;;2089487;28;20047;-69
2021/12/17 02:30:46;;;;;;;53.80;25.30;;;6.30;99.90;;;;;;2097685;28;20025;-69
2021/12/17 02:31:47;;;;;;;;;;;6.40;99.90;;;;;;2097737;28;20089;-72
2021/12/17 02:32:49;;;;;;;48.92;24.00;;;6.40;99.90;;;;;;2097829;28;19954;-68
2021/12/17 02:33:50;;;;;;;52.28;24.42;;;6.40;99.90;;;;;;2089517;28;20047;-68
2021/12/17 02:35:07;;;;;;;49.42;23.98;;;6.40;99.90;;;;;;2089538;28;20579;-68
2021/12/17 02:36:08;;;;;;;49.40;24.25;;;6.40;99.90;;;;;;2095601;28;20058;-69
2021/12/17 02:37:13;;;;;;;50.10;24.52;;;6.40;99.90;;;;;;2081166;28;20037;-69
2021/12/17 02:38:46;;;;;;;48.28;23.35;;;6.40;99.90;;;;;;2093932;28;20012;-69
2021/12/17 02:45:32;;;;;;;53.83;25.80;;;6.50;99.90;;;;;;2087606;28;20946;-69
2021/12/17 02:46:33;;;;;;;49.65;25.35;;;6.40;99.90;;;;;;2089151;28;20479;-69
2021/12/17 02:47:33;;;;;;;50.22;24.80;;;6.40;99.90;;;;;;2089294;28;20028;-69
2021/12/17 02:48:36;;;;;;;51.40;24.92;;;6.40;99.90;;;;;;2080588;28;20030;-69
2021/12/17 02:49:41;;;;;;;50.03;24.38;;;6.40;99.90;;;;;;2089209;28;20060;-69
2021/12/17 02:50:53;;;;;;;52.63;24.92;;;6.50;99.90;;;;;;2081402;28;20029;-69
2021/12/17 02:51:54;;;;;;;49.25;24.55;;;6.50;99.90;;;;;;2090558;28;20049;-69
2021/12/17 02:52:58;;;;;;;49.83;23.50;;;6.50;99.90;;;;;;2097598;28;20086;-69
2021/12/17 02:53:59;;;;;;;50.58;23.90;;;6.50;99.90;;;;;;2096961;28;20055;-69
2021/12/17 02:55:01;;;;;;;50.13;24.15;;;6.50;99.90;;;;;;2089435;28;20036;-69
2021/12/17 02:56:08;;;;;;;48.30;24.30;;;6.50;99.90;;;;;;2096799;28;20034;-69
2021/12/17 02:57:11;;;;;;;52.03;24.80;;;6.50;99.90;;;;;;2096323;28;20039;-69
2021/12/17 02:58:12;;;;;;;53.80;24.90;;;6.60;99.90;;;;;;2088611;28;20108;-69
2021/12/17 02:59:13;;;;;;;51.95;25.50;;;6.60;99.90;;;;;;2088705;28;20504;-70
2021/12/17 03:00:16;;;;;;;48.55;24.90;;;6.60;99.90;;;;;;2089260;28;20025;-69
2021/12/17 03:01:17;;;;;;;48.78;23.65;;;6.60;99.90;;;;;;2089095;28;20047;-69
2021/12/17 03:02:19;;;;;;;49.25;24.80;;;6.60;99.90;;;;;;2089025;28;20032;-69
2021/12/17 03:03:22;;;;;;;49.28;24.95;;;6.60;99.90;;;;;;2089614;28;20071;-69
2021/12/17 03:04:25;;;;;;;48.38;24.08;;;6.60;99.90;;;;;;2090034;28;20043;-69
2021/12/17 03:05:26;;;;;;;51.75;25.13;;;6.60;99.90;;;;;;2097436;28;20083;-69
2021/12/17 03:06:28;;;;;;;47.78;25.00;;;6.60;99.90;;;;;;2097658;28;20040;-69
2021/12/17 03:07:29;;;;;;;49.72;24.75;;;6.50;99.90;;;;;;2089411;28;20112;-69
2021/12/17 03:08:30;;;;;;;50.85;25.63;;;6.50;99.90;;;;;;2088864;28;20029;-69
2021/12/17 03:10:38;;;;;;;53.13;25.15;;;6.50;99.90;;;;;;2089436;28;20377;-69
2021/12/17 03:11:39;;;;;;;52.90;25.95;;;6.50;99.90;;;;;;2089760;28;20070;-70
2021/12/17 03:12:47;;;;;;;47.97;24.98;;;6.50;99.90;;;;;;2089968;28;20404;-71
2021/12/17 03:13:49;;;;;;;48.35;23.88;;;6.50;99.90;;;;;;2089985;28;20029;-71
2021/12/17 03:14:58;;;;;;;52.75;25.67;;;6.50;99.90;;;;;;2089332;28;20033;-70
2021/12/17 03:17:08;;;;;;;49.60;24.50;;;6.50;99.90;;;;;;2089501;28;20036;-70
2021/12/17 03:23:43;;;;;;;49.30;24.92;;;6.50;99.90;;;;;;2097488;28;20036;-71
2021/12/17 03:24:49;;;;;;;51.13;24.30;;;6.50;99.90;;;;;;2089120;28;20496;-70
2021/12/17 03:25:50;;;;;;;50.22;25.23;;;6.50;99.90;;;;;;2089220;28;20036;-70
2021/12/17 03:26:55;;;;;;;49.70;25.05;;;6.50;99.90;;;;;;2097186;28;20546;-70
2021/12/17 03:27:56;;;;;;;49.28;24.80;;;6.50;99.90;;;;;;2088653;28;20452;-71
2021/12/17 03:29:07;;;;;;;47.42;24.25;;;6.50;99.90;;;;;;2089227;28;20124;-70
2021/12/17 03:30:10;;;;;;;51.50;24.70;;;6.40;99.90;;;;;;2089199;28;20025;-71
2021/12/17 03:31:12;;;;;;;46.67;23.77;;;6.40;99.90;;;;;;2081106;28;20057;-70
2021/12/17 03:32:13;;;;;;;45.25;23.38;;;6.40;99.90;;;;;;2088854;28;20025;-70
2021/12/17 03:33:14;;;;;;;48.78;24.20;;;6.40;99.90;;;;;;2097476;28;20142;-70
2021/12/17 03:34:19;;;;;;;49.03;24.65;;;6.40;99.90;;;;;;2089944;28;20029;-71
2021/12/17 03:35:23;;;;;;;50.30;24.70;;;6.40;99.90;;;;;;2089366;28;20070;-71
2021/12/17 03:36:23;;;;;;;47.30;24.75;;;6.40;99.90;;;;;;2080910;28;20033;-71
2021/12/17 03:37:24;;;;;;;53.97;26.42;;;6.40;99.90;;;;;;2081102;28;20037;-71
2021/12/17 03:38:27;;;;;;;53.30;25.13;;;6.40;99.90;;;;;;2088603;28;20029;-71
2021/12/17 03:39:30;;;;;;;52.80;25.20;;;6.30;99.90;;;;;;2089189;28;20080;-71
2021/12/17 03:40:33;;;;;;;52.15;24.23;;;6.30;99.90;;;;;;2097528;28;20020;-71
2021/12/17 03:41:39;;;;;;;54.63;26.27;;;6.20;99.90;;;;;;2088801;28;20033;-71
2021/12/17 03:42:47;;;;;;;54.33;24.77;;;6.20;99.90;;;;;;2089522;28;20021;-71
2021/12/17 03:43:50;;;;;;;50.95;25.40;;;6.30;99.90;;;;;;2089170;28;20017;-71
2021/12/17 03:44:51;;;;;;;48.15;24.38;;;6.20;99.90;;;;;;2081206;28;20060;-71
2021/12/17 03:46:13;;;;;;;;;;;6.30;99.90;;;;;;2089390;28;20041;-71
2021/12/17 03:47:13;;;;;;;50.35;23.45;;;6.30;99.90;;;;;;2097337;28;19957;-71
2021/12/17 03:48:31;;;;;;;49.38;24.23;;;6.30;99.90;;;;;;2088809;28;20037;-71
2021/12/17 03:49:36;;;;;;;48.03;23.85;;;6.30;99.90;;;;;;2089935;28;20139;-71
2021/12/17 03:50:37;;;;;;;51.58;24.65;;;6.30;99.90;;;;;;2089101;28;20121;-70
2021/12/17 03:51:49;;;;;;;51.30;24.42;;;6.40;99.90;;;;;;2088875;28;20047;-70
2021/12/17 03:52:51;;;;;;;49.53;24.63;;;6.40;99.90;;;;;;2097763;28;20035;-70
2021/12/17 03:53:57;;;;;;;52.38;25.33;;;6.40;99.90;;;;;;2097228;28;20036;-71
2021/12/17 03:54:58;;;;;;;53.40;24.25;;;6.30;99.90;;;;;;2081548;28;20057;-70
2021/12/17 03:56:00;;;;;;;54.15;25.30;;;6.30;99.90;;;;;;2089134;28;20029;-71
2021/12/17 03:57:02;;;;;;;55.58;26.08;;;6.30;99.90;;;;;;2097305;28;20024;-71
2021/12/17 03:58:03;;;;;;;51.63;25.13;;;6.20;99.90;;;;;;2088669;28;20044;-70
2021/12/17 03:59:10;;;;;;;52.25;25.02;;;6.20;99.90;;;;;;2089322;28;20143;-70
2021/12/17 04:00:13;;;;;;;56.60;24.88;;;6.20;99.90;;;;;;2089916;28;20032;-70
2021/12/17 04:01:20;;;;;;;49.30;24.35;;;6.20;99.90;;;;;;2097077;28;20031;-70
2021/12/17 04:02:21;;;;;;;54.35;25.45;;;6.20;99.90;;;;;;2089448;28;20028;-70
2021/12/17 04:03:22;;;;;;;52.28;25.17;;;6.20;99.90;;;;;;2097453;28;20064;-70
2021/12/17 04:04:29;;;;;;;50.65;24.60;;;6.20;99.90;;;;;;2097844;28;20377;-70
2021/12/17 04:05:49;;;;;;;52.00;25.10;;;6.30;99.90;;;;;;2094783;28;20045;-70
2021/12/17 04:07:28;;;;;;;51.42;24.48;;;6.20;99.90;;;;;;2089569;28;20025;-70
2021/12/17 04:08:47;;;;;;;53.42;24.98;;;6.10;99.90;;;;;;2089776;28;20499;-69
2021/12/17 04:10:04;;;;;;;59.47;25.83;;;6.10;99.90;;;;;;2097165;28;20087;-70
2021/12/17 04:11:06;;;;;;;55.50;25.83;;;6.00;99.90;;;;;;2095075;28;20129;-71
2021/12/17 04:12:15;;;;;;;51.95;24.33;;;6.10;99.90;;;;;;2089423;28;20033;-69
2021/12/17 04:13:38;;;;;;;51.83;25.25;;;6.10;99.90;;;;;;2097293;28;20043;-70
2021/12/17 04:14:46;;;;;;;51.67;24.48;;;6.10;99.90;;;;;;2089214;28;20055;-70
2021/12/17 04:15:53;;;;;;;53.60;24.60;;;6.10;99.90;;;;;;2081877;28;20026;-70
2021/12/17 04:17:01;;;;;;;54.42;25.60;;;6.00;99.90;;;;;;2082147;28;20432;-70
2021/12/17 04:18:09;;;;;;;55.65;26.23;;;6.00;99.90;;;;;;2089014;28;20044;-71
2021/12/17 04:19:10;;;;;;;50.25;24.23;;;6.00;99.90;;;;;;2089602;28;20064;-70
2021/12/17 04:20:11;;;;;;;54.13;25.50;;;6.00;99.90;;;;;;2089682;28;20021;-70
2021/12/17 04:21:14;;;;;;;50.25;24.42;;;6.00;99.90;;;;;;2097943;28;20442;-70
2021/12/17 04:22:16;;;;;;;49.55;24.52;;;6.00;99.90;;;;;;2097504;28;20063;-70
2021/12/17 04:23:17;;;;;;;54.35;25.38;;;6.00;99.90;;;;;;2089318;28;20052;-70
2021/12/17 04:24:17;;;;;;;55.17;25.58;;;6.10;99.90;;;;;;2089251;28;20028;-70
2021/12/17 04:25:18;;;;;;;54.03;25.77;;;6.00;99.90;;;;;;2089124;28;20028;-71
2021/12/17 04:26:20;;;;;;;53.03;25.67;;;6.00;99.90;;;;;;2089029;28;20033;-70
2021/12/17 04:27:25;;;;;;;54.75;25.92;;;6.00;99.90;;;;;;2089047;28;20039;-70
2021/12/17 04:28:26;;;;;;;56.10;26.52;;;5.90;99.90;;;;;;2088548;28;20048;-70
2021/12/17 04:29:28;;;;;;;54.95;26.52;;;5.90;99.90;;;;;;2080799;28;20069;-70
2021/12/17 04:30:29;;;;;;;52.10;25.60;;;5.90;99.90;;;;;;2089227;28;20029;-70
2021/12/17 04:31:31;;;;;;;52.08;25.17;;;5.90;99.90;;;;;;2096956;28;20021;-69
2021/12/17 04:32:32;;;;;;;51.63;25.77;;;6.00;99.90;;;;;;2097803;28;20128;-69
2021/12/17 04:33:35;;;;;;;50.92;24.90;;;5.90;99.90;;;;;;2097722;28;20017;-70
2021/12/17 04:34:36;;;;;;;51.42;25.40;;;6.00;99.90;;;;;;2089563;28;20123;-69
2021/12/17 04:35:39;;;;;;;54.53;25.30;;;5.90;99.90;;;;;;2089474;28;20128;-70
2021/12/17 04:36:40;;;;;;;50.97;25.48;;;5.90;99.90;;;;;;2081353;28;20014;-70
2021/12/17 04:37:51;;;;;;;55.13;25.27;;;5.90;99.90;;;;;;2075233;28;20057;-69
2021/12/17 04:38:52;;;;;;;53.75;24.65;;;5.80;99.90;;;;;;2089572;28;20500;-69
2021/12/17 04:39:52;;;;;;;52.72;24.50;;;5.80;99.90;;;;;;2090131;28;20070;-69
2021/12/17 04:41:03;;;;;;;50.40;24.63;;;5.80;99.90;;;;;;2089497;28;20424;-69
2021/12/17 04:42:12;;;;;;;55.22;25.80;;;5.80;99.90;;;;;;2090299;28;20443;-69
2021/12/17 04:43:21;;;;;;;52.63;26.20;;;5.80;99.90;;;;;;2089063;28;20061;-69
2021/12/17 04:44:30;;;;;;;54.25;26.55;;;5.80;99.90;;;;;;2082372;28;20033;-69
2021/12/17 04:45:37;;;;;;;49.85;25.40;;;5.80;99.90;;;;;;2090235;28;20116;-70
2021/12/17 04:46:46;;;;;;;52.88;25.80;;;5.80;99.90;;;;;;2089333;28;20017;-69
2021/12/17 04:57:34;;;;;;;54.90;27.10;;;5.70;99.90;;;;;;2094527;28;20029;-69
2021/12/17 04:58:37;;;;;;;57.20;27.63;;;5.70;99.90;;;;;;2096296;28;20116;-69
2021/12/17 04:59:37;;;;;;;53.83;26.58;;;5.70;99.90;;;;;;2096611;28;20028;-70
2021/12/17 05:00:39;;;;;;;55.55;26.58;;;5.70;99.90;;;;;;2096807;28;20091;-70
2021/12/17 05:01:48;;;;;;;52.55;26.00;;;5.80;99.90;;;;;;2088114;28;20466;-71
2021/12/17 05:02:53;;;;;;;54.28;26.40;;;5.70;99.90;;;;;;2088476;28;20836;-73
2021/12/17 05:03:54;;;;;;;54.85;25.77;;;5.70;99.90;;;;;;2096140;28;20032;-70
2021/12/17 05:04:55;;;;;;;56.90;26.52;;;5.70;99.90;;;;;;2088505;28;20039;-69
2021/12/17 05:05:55;;;;;;;60.33;27.40;;;5.70;99.90;;;;;;2088393;28;20033;-70
2021/12/17 05:07:01;;;;;;;55.97;25.20;;;5.70;99.90;;;;;;2089026;28;20021;-69
2021/12/17 05:08:06;;;;;;;60.85;26.75;;;5.60;99.90;;;;;;2095478;28;20052;-70
2021/12/17 05:09:17;;;;;;;60.60;27.70;;;5.60;99.90;;;;;;2089036;28;20427;-69
2021/12/17 05:19:49;;;;;;;60.13;26.35;;;5.60;99.90;;;;;;2083348;28;20432;-70
2021/12/17 05:20:56;;;;;;;54.53;26.42;;;5.60;99.90;;;;;;2081784;28;20077;-70
2021/12/17 05:21:58;;;;;;;57.90;27.40;;;5.60;99.90;;;;;;2088754;28;20033;-70
2021/12/17 05:23:00;;;;;;;55.05;27.70;;;5.60;99.90;;;;;;2088338;28;20072;-70
2021/12/17 05:24:00;;;;;;;61.15;27.75;;;5.60;99.90;;;;;;2080344;28;20032;-69
2021/12/17 05:25:01;;;;;;;58.55;28.08;;;5.60;99.90;;;;;;2079920;28;20440;-69
2021/12/17 05:26:07;;;;;;;59.40;28.42;;;5.60;99.90;;;;;;2071847;28;20029;-70
2021/12/17 05:27:13;;;;;;;57.03;28.30;;;5.60;99.90;;;;;;2082805;28;20108;-69
2021/12/17 05:28:23;;;;;;;62.90;28.63;;;5.60;99.90;;;;;;2087998;28;20041;-71
2021/12/17 05:29:24;;;;;;;57.78;27.40;;;5.60;99.90;;;;;;2079930;28;20631;-68
2021/12/17 05:30:29;;;;;;;61.83;28.95;;;5.60;99.90;;;;;;2079994;28;20029;-69
2021/12/17 05:31:30;;;;;;;64.93;28.67;;;5.60;99.90;;;;;;2088014;28;20044;-70
2021/12/17 05:32:31;;;;;;;59.28;28.45;;;5.60;99.90;;;;;;2096521;28;20024;-69
2021/12/17 05:33:35;;;;;;;57.83;28.13;;;5.60;99.90;;;;;;2088190;28;20035;-72
2021/12/17 05:34:37;;;;;;;59.03;28.08;;;5.60;99.90;;;;;;2088176;28;20020;-69
2021/12/17 05:35:42;;;;;;;58.90;27.55;;;5.60;99.90;;;;;;2095985;28;20601;-69
2021/12/17 05:36:43;;;;;;;57.15;26.77;;;5.60;99.90;;;;;;2088371;28;20032;-69
2021/12/17 05:37:49;;;;;;;56.58;27.15;;;5.60;99.90;;;;;;2087829;28;20025;-70
2021/12/17 05:38:50;;;;;;;53.88;27.00;;;5.60;99.90;;;;;;2079737;28;20029;-69
2021/12/17 05:39:51;;;;;;;55.63;26.33;;;5.60;99.90;;;;;;2080054;28;20025;-69
2021/12/17 05:40:52;;;;;;;51.92;26.70;;;5.50;99.90;;;;;;2088636;28;20040;-70
2021/12/17 05:41:54;;;;;;;58.38;26.02;;;5.60;99.90;;;;;;2088083;28;20025;-69
2021/12/17 05:43:24;;;;;;;54.92;25.27;;;5.60;99.90;;;;;;2084815;28;20025;-69
2021/12/17 05:44:25;;;;;;;56.70;26.42;;;5.70;99.90;;;;;;2088454;28;20126;-70
2021/12/17 05:45:36;;;;;;;53.17;25.88;;;5.70;99.90;;;;;;2088109;28;20039;-70
2021/12/17 05:46:50;;;;;;;51.95;25.00;;;5.70;99.90;;;;;;2081497;28;20040;-70
2021/12/17 05:47:52;;;;;;;56.90;26.83;;;5.60;99.90;;;;;;2081304;28;20026;-69
2021/12/17 05:48:53;;;;;;;57.97;26.55;;;5.70;99.90;;;;;;2088112;28;20071;-69
2021/12/17 05:49:53;;;;;;;56.85;25.88;;;5.60;99.90;;;;;;2088431;28;20037;-69
2021/12/17 05:51:00;;;;;;;52.10;25.48;;;5.60;99.90;;;;;;2096575;28;20025;-69
2021/12/17 05:52:00;;;;;;;54.38;25.75;;;5.60;99.90;;;;;;2087872;28;20032;-70
2021/12/17 05:53:04;;;;;;;53.25;25.33;;;5.60;99.90;;;;;;2088188;28;20021;-70
2021/12/17 05:54:05;;;;;;;48.47;24.02;;;5.60;99.90;;;;;;2096509;28;20040;-69
2021/12/17 05:55:06;;;;;;;54.55;26.60;;;5.60;99.90;;;;;;2095317;28;20025;-71
2021/12/17 05:56:07;;;;;;;59.22;27.90;;;5.60;99.90;;;;;;2095474;28;20564;-69
2021/12/17 05:57:20;;;;;;;62.42;27.45;;;5.60;99.90;;;;;;2095801;28;20522;-70
2021/12/17 05:58:22;;;;;;;60.50;27.27;;;5.60;99.90;;;;;;2096076;28;20024;-70
2021/12/17 05:59:23;;;;;;;62.22;28.25;;;5.50;99.90;;;;;;2096599;28;20028;-70
2021/12/17 06:00:25;;;;;;;55.17;26.88;;;5.60;99.90;;;;;;2096291;28;20029;-70
2021/12/17 06:01:25;;;;;;;55.20;26.35;;;5.60;99.90;;;;;;2095323;28;20040;-69
2021/12/17 06:02:28;;;;;;;59.33;27.10;;;5.60;99.90;;;;;;2096270;28;20028;-74
2021/12/17 06:03:30;;;;;;;54.85;27.17;;;5.60;99.90;;;;;;2087945;28;20025;-70
2021/12/17 06:04:41;;;;;;;54.42;26.75;;;5.70;99.90;;;;;;2096374;28;20111;-69
2021/12/17 06:05:42;;;;;;;57.97;27.90;;;5.60;99.90;;;;;;2096086;28;20033;-68
2021/12/17 06:06:46;;;;;;;57.55;26.88;;;5.60;99.90;;;;;;2096401;28;20036;-71
2021/12/17 06:07:47;;;;;;;57.15;28.00;;;5.60;99.90;;;;;;2096253;28;20024;-70
2021/12/17 06:08:48;;;;;;;56.65;28.30;;;5.60;99.90;;;;;;2096383;28;20021;-71
2021/12/17 06:09:49;;;;;;;64.07;29.80;;;5.50;99.90;;;;;;2096442;28;20458;-68
2021/12/17 06:10:53;;;;;;;63.65;29.20;;;5.40;99.90;;;;;;2096299;28;20131;-70
2021/12/17 06:11:54;;;;;;;65.50;30.27;;;5.40;99.90;;;;;;2096071;28;20052;-69
2021/12/17 06:12:55;;;;;;;67.15;29.58;;;5.40;99.90;;;;;;2105097;28;20027;-70
2021/12/17 06:13:57;;;;;;;65.15;29.13;;;5.40;99.90;;;;;;2097416;28;20048;-69
2021/12/17 06:15:04;;;;;;;61.85;28.38;;;5.30;99.90;;;;;;2097870;28;20087;-71
2021/12/17 06:16:04;;;;;;;66.07;29.10;;;5.30;99.90;;;;;;2096721;28;20129;-71
2021/12/17 06:17:06;;;;;;;63.22;28.67;;;5.30;99.90;;;;;;2096889;28;20210;-70
2021/12/17 06:18:18;;;;;;;66.38;29.05;;;5.30;99.90;;;;;;2096152;28;20056;-70
2021/12/17 06:19:19;;;;;;;60.80;27.90;;;5.30;99.90;;;;;;2088125;28;20033;-69
2021/12/17 06:20:22;;;;;;;63.33;28.30;;;5.40;99.90;;;;;;2088296;28;20029;-70
2021/12/17 06:21:27;;;;;;;62.85;28.27;;;5.40;99.90;;;;;;2088502;28;20532;-72
2021/12/17 06:22:27;;;;;;;62.63;28.10;;;5.40;99.90;;;;;;2080663;28;20041;-69
2021/12/17 06:23:33;;;;;;;61.47;28.63;;;5.40;99.90;;;;;;2089630;28;20032;-70
2021/12/17 06:24:34;;;;;;;63.47;29.73;;;5.40;99.90;;;;;;2104988;28;20503;-69
2021/12/17 06:25:35;;;;;;;62.53;28.95;;;5.30;99.90;;;;;;2096643;28;20033;-69
2021/12/17 06:26:36;;;;;;;62.17;28.90;;;5.30;99.90;;;;;;2088504;28;20109;-70
2021/12/17 06:27:40;;;;;;;62.85;27.92;;;5.30;99.90;;;;;;2088423;28;20013;-70
2021/12/17 06:28:42;;;;;;;62.25;28.13;;;5.30;99.90;;;;;;2088675;28;20056;-70
2021/12/17 06:29:44;;;;;;;62.90;28.30;;;5.30;99.90;;;;;;2096579;28;20031;-70
2021/12/17 06:30:49;;;;;;;63.75;29.38;;;5.30;99.90;;;;;;2088603;28;20469;-69
2021/12/17 06:31:57;;;;;;;64.55;28.58;;;5.30;99.90;;;;;;2089173;28;20029;-69
2021/12/17 06:32:58;;;;;;;62.92;27.88;;;5.30;99.90;;;;;;2097270;28;20480;-68
2021/12/17 06:34:02;;;;;;;68.22;28.35;;;5.20;99.90;;;;;;2096855;28;20086;-73
2021/12/17 06:35:06;;;;;;;66.82;28.50;;;5.20;99.90;;;;;;2097653;28;20017;-69
2021/12/17 06:36:08;;;;;;;61.78;27.60;;;5.20;99.90;;;;;;2096872;28;20029;-70
2021/12/17 06:37:10;;;;;;;58.80;27.27;;;5.20;99.90;;;;;;2096742;28;20024;-69
2021/12/17 06:38:12;;;;;;;59.25;27.25;;;5.30;99.90;;;;;;2096420;28;20024;-69
2021/12/17 06:39:14;;;;;;;68.00;29.10;;;5.30;99.90;;;;;;2089044;28;20029;-71
2021/12/17 06:40:15;;;;;;;61.78;28.92;;;5.30;99.90;;;;;;2097015;28;20736;-70
2021/12/17 06:41:16;;;;;;;64.88;29.08;;;5.20;99.90;;;;;;2098168;28;20043;-68
2021/12/17 06:42:17;;;;;;;61.13;28.17;;;5.20;99.90;;;;;;2096533;28;20054;-69
2021/12/17 06:43:21;;;;;;;60.55;28.30;;;5.30;99.90;;;;;;2096763;28;20488;-69
2021/12/17 06:44:25;;;;;;;60.28;28.55;;;5.30;99.90;;;;;;2089222;28;20150;-70
2021/12/17 06:45:43;;;;;;;62.42;28.75;;;5.30;99.90;;;;;;2088419;28;20686;-69
2021/12/17 06:47:54;;;;;;;64.28;28.55;;;5.30;99.90;;;;;;2095543;28;20487;-71
2021/12/17 06:49:17;;;;;;;65.38;28.38;;;5.30;99.90;;;;;;2088841;28;20029;-70
2021/12/17 07:05:57;;;;;;;;;;;5.20;99.90;;;;;;2096565;28;20033;-69
2021/12/17 07:06:00;;;;;;;58.35;26.45;;;5.20;99.90;;;;;;2096744;28;20028;-69
2021/12/17 07:08:13;;;;;;;63.92;27.10;;;5.20;99.90;;;;;;2096963;28;20043;-69
2021/12/17 07:11:55;;;;;;;74.13;31.85;;;5.20;99.90;;;;;;2105743;28;20028;-69
2021/12/17 07:17:21;;;;;;;72.70;31.98;;;5.10;99.90;;;;;;2097688;28;20031;-69
2021/12/17 07:19:02;;;;;;;74.63;31.85;;;5.10;99.90;;;;;;2097142;28;20036;-70
2021/12/17 07:22:17;;;;;;;83.30;33.10;;;5.10;99.90;;;;;;2097113;28;20120;-70
2021/12/17 07:23:36;;;;;;;83.72;33.83;;;5.10;99.90;;;;;;2097884;28;20032;-70
2021/12/17 07:24:50;;;;;;;77.13;33.90;;;5.10;99.90;;;;;;2100205;28;20050;-69
2021/12/17 07:33:47;;;;;;;74.85;32.50;;;4.90;99.90;;;;;;2097387;28;20032;-70
2021/12/17 07:36:17;;;;;;;76.32;31.83;;;4.90;99.90;;;;;;2097829;28;20020;-70
2021/12/17 07:38:42;;;;;;;74.10;32.55;;;4.90;99.90;;;;;;2097753;28;20123;-71
2021/12/17 07:40:12;;;;;;;74.22;30.55;;;4.90;99.90;;;;;;2080473;28;20041;-71
2021/12/17 07:41:20;;;;;;;80.88;33.00;;;4.90;99.90;;;;;;2080551;28;20571;-71
2021/12/17 07:42:24;;;;;;;73.85;31.45;;;4.90;99.90;;;;;;2097210;28;20093;-70
2021/12/17 07:43:50;;;;;;;81.22;32.67;;;5.00;99.90;;;;;;2097707;28;20031;-71
2021/12/17 07:44:52;;;;;;;77.78;31.20;;;4.90;99.90;;;;;;2105817;28;20055;-74
2021/12/17 07:45:58;;;;;;;74.50;32.13;;;4.90;99.90;;;;;;2105210;28;20036;-70
2021/12/17 07:47:01;;;;;;;69.55;31.30;;;4.90;99.90;;;;;;2097590;28;20025;-69
2021/12/17 07:48:02;;;;;;;75.20;31.80;;;4.90;99.90;;;;;;2088410;28;20542;-70
2021/12/17 07:49:05;;;;;;;70.85;30.98;;;5.00;99.90;;;;;;2097391;28;20141;-69
2021/12/17 07:50:06;;;;;;;71.63;30.38;;;5.00;99.90;;;;;;2097448;28;20507;-70
2021/12/17 07:51:13;;;;;;;69.63;29.98;;;5.00;99.90;;;;;;2097873;28;20021;-69
2021/12/17 07:52:42;;;;;;;68.68;29.90;;;5.00;99.90;;;;;;2099856;28;20063;-70
2021/12/17 07:53:44;;;;;;;69.40;30.42;;;5.00;99.90;;;;;;2098741;28;20020;-70
2021/12/17 07:54:52;;;;;;;76.05;31.45;;;5.00;99.90;;;;;;2097394;28;20024;-70
2021/12/17 07:55:52;;;;;;;76.78;31.73;;;5.00;99.90;;;;;;2097207;28;20119;-70
2021/12/17 07:56:59;;;;;;;72.85;31.55;;;5.00;99.90;;;;;;2097746;28;20036;-70
2021/12/17 07:58:00;;;;;;;77.00;31.52;;;5.00;99.90;;;;;;2096752;28;20033;-70